Time;durP1;ratioP1;P1;durP2;ratioP2;P2;SDS_P1;SDS_P2;PMS_P1;PMS_P2;Temp;Humidity;BMP_temperature;BMP_pressure;BME280_temperature;BME280_humidity;BME280_pressure;Samples;Min_cycle;Max_cycle;Signal;HPM_P1;HPM_P2
2024/04/17 00:05:38;;;;;;;6.15;1.52;;;6.50;99.90;;;;;;13307560;26;20019;-37
2024/04/17 00:11:41;;;;;;;8.15;2.00;;;6.70;99.90;;;;;;13311862;26;20015;-36
2024/04/17 00:17:43;;;;;;;5.85;1.65;;;6.60;99.90;;;;;;13323797;26;20001;-36
2024/04/17 00:23:45;;;;;;;6.93;1.67;;;6.60;99.90;;;;;;13292711;26;20463;-36
2024/04/17 00:29:47;;;;;;;9.32;2.55;;;6.60;99.90;;;;;;13318103;26;20406;-35
2024/04/17 00:35:49;;;;;;;7.80;1.70;;;6.50;99.90;;;;;;13309994;26;20000;-36
2024/04/17 00:41:51;;;;;;;5.50;1.77;;;6.30;99.90;;;;;;13282818;26;20029;-36
2024/04/17 00:47:53;;;;;;;5.30;1.60;;;6.20;99.90;;;;;;13225933;26;20032;-36
2024/04/17 00:53:56;;;;;;;4.45;1.98;;;6.20;99.90;;;;;;13313390;26;20004;-36
2024/04/17 00:59:59;;;;;;;7.93;1.73;;;6.10;99.90;;;;;;13314864;26;20001;-37
2024/04/17 01:06:01;;;;;;;5.32;1.00;;;6.00;99.90;;;;;;13315090;26;20004;-36
2024/04/17 01:12:05;;;;;;;7.15;1.52;;;5.90;99.90;;;;;;13290188;26;20019;-36
2024/04/17 01:18:07;;;;;;;5.15;1.80;;;5.80;99.90;;;;;;13318902;26;20356;-36
2024/04/17 01:24:10;;;;;;;3.90;1.30;;;5.80;99.90;;;;;;13318114;26;20013;-35
2024/04/17 01:30:12;;;;;;;7.70;1.15;;;6.00;99.90;;;;;;13316049;26;20016;-36
2024/04/17 01:36:14;;;;;;;5.72;1.08;;;6.00;99.90;;;;;;13312428;26;20074;-35
2024/04/17 01:42:16;;;;;;;6.72;1.50;;;6.00;99.90;;;;;;13311291;26;20005;-36
2024/04/17 01:48:18;;;;;;;4.90;1.20;;;6.00;99.90;;;;;;13258776;26;20060;-36
2024/04/17 01:54:20;;;;;;;6.80;1.15;;;6.00;99.90;;;;;;13309806;26;20012;-37
2024/04/17 02:00:22;;;;;;;4.65;1.00;;;6.10;99.90;;;;;;13322362;26;20103;-37
2024/04/17 02:06:24;;;;;;;5.88;1.10;;;6.30;99.90;;;;;;13324700;26;20044;-36
2024/04/17 02:12:26;;;;;;;5.18;1.02;;;6.20;99.90;;;;;;13320483;26;20023;-37
2024/04/17 02:18:28;;;;;;;7.30;1.13;;;6.00;99.90;;;;;;13300338;26;20044;-36
2024/04/17 02:24:30;;;;;;;6.15;1.20;;;6.00;99.90;;;;;;13317071;26;20072;-36
2024/04/17 02:30:32;;;;;;;3.47;1.25;;;5.90;99.90;;;;;;13309018;26;20032;-36
2024/04/17 02:36:34;;;;;;;7.75;1.55;;;5.90;99.90;;;;;;13325081;26;20019;-36
2024/04/17 02:42:36;;;;;;;9.02;1.13;;;5.90;99.90;;;;;;13313306;26;20008;-37
2024/04/17 02:48:38;;;;;;;9.30;1.45;;;6.00;99.90;;;;;;13255166;26;20004;-37
2024/04/17 02:54:40;;;;;;;4.47;1.00;;;5.80;99.90;;;;;;13313971;26;20057;-38
2024/04/17 03:00:42;;;;;;;9.32;1.30;;;5.70;99.90;;;;;;13302980;26;20032;-36
2024/04/17 03:06:44;;;;;;;7.28;1.33;;;5.60;99.90;;;;;;13275461;26;20036;-36
2024/04/17 03:12:46;;;;;;;6.15;1.30;;;5.60;99.90;;;;;;13327565;26;20050;-37
2024/04/17 03:18:48;;;;;;;5.40;1.63;;;5.70;99.90;;;;;;13328570;26;20004;-37
2024/04/17 03:24:51;;;;;;;5.70;1.23;;;5.70;99.90;;;;;;13320756;26;19996;-37
2024/04/17 03:30:53;;;;;;;6.78;1.33;;;5.80;99.90;;;;;;13306837;26;20013;-36
2024/04/17 03:36:55;;;;;;;3.72;1.27;;;5.40;99.90;;;;;;13323389;26;20015;-36
2024/04/17 03:42:57;;;;;;;4.28;1.20;;;5.60;99.90;;;;;;13304889;26;20500;-36
2024/04/17 03:48:59;;;;;;;6.28;1.33;;;5.30;99.90;;;;;;13281408;26;20091;-36
2024/04/17 03:55:02;;;;;;;8.10;1.63;;;5.30;99.90;;;;;;13312627;26;20082;-37
2024/04/17 04:01:04;;;;;;;7.97;1.52;;;5.30;99.90;;;;;;13315706;26;20016;-36
2024/04/17 04:07:06;;;;;;;6.00;1.80;;;5.00;99.90;;;;;;13326422;26;20468;-37
2024/04/17 04:13:08;;;;;;;3.47;1.30;;;5.10;99.90;;;;;;13321324;26;20012;-37
2024/04/17 04:19:09;;;;;;;10.57;1.42;;;5.10;99.90;;;;;;13320915;26;20012;-37
2024/04/17 04:25:11;;;;;;;7.22;1.50;;;5.20;99.90;;;;;;13305226;26;20701;-37
2024/04/17 04:31:13;;;;;;;4.50;1.35;;;5.10;99.90;;;;;;13332222;26;20019;-36
2024/04/17 04:37:16;;;;;;;5.53;1.50;;;5.20;99.90;;;;;;13313906;26;20085;-36
2024/04/17 04:43:18;;;;;;;9.60;2.00;;;5.10;99.90;;;;;;13311033;26;20019;-35
2024/04/17 04:49:20;;;;;;;8.60;1.90;;;5.00;99.90;;;;;;13287909;26;20019;-37
2024/04/17 04:55:22;;;;;;;4.75;1.63;;;5.00;99.90;;;;;;13278393;26;20031;-36
2024/04/17 05:01:24;;;;;;;5.13;1.50;;;4.80;99.90;;;;;;13252463;26;20225;-37
2024/04/17 05:07:26;;;;;;;4.30;1.75;;;5.10;99.90;;;;;;13221417;26;20023;-37
2024/04/17 05:13:30;;;;;;;7.43;1.60;;;5.20;99.90;;;;;;13232078;26;20103;-36
2024/04/17 05:19:32;;;;;;;5.97;1.85;;;5.20;99.90;;;;;;13245167;26;20000;-37
2024/04/17 05:25:34;;;;;;;5.97;1.80;;;5.30;99.90;;;;;;13245640;26;20005;-36
2024/04/17 05:31:37;;;;;;;6.82;1.70;;;6.00;99.90;;;;;;13240864;26;20041;-36
2024/04/17 05:37:39;;;;;;;8.90;2.20;;;6.00;99.90;;;;;;13229777;26;20097;-36
2024/04/17 05:43:41;;;;;;;6.47;1.83;;;6.00;99.90;;;;;;13201869;26;20463;-37
2024/04/17 05:49:43;;;;;;;5.07;1.75;;;5.80;99.90;;;;;;13244371;26;20032;-37
2024/04/17 05:55:45;;;;;;;5.60;2.03;;;5.80;99.90;;;;;;13275366;26;20020;-36
2024/04/17 06:01:47;;;;;;;6.90;2.03;;;5.90;99.90;;;;;;13296134;26;20009;-36
2024/04/17 06:07:49;;;;;;;6.35;1.92;;;6.00;99.90;;;;;;13315325;26;20001;-36
2024/04/17 06:13:51;;;;;;;6.82;2.17;;;6.50;99.90;;;;;;13330995;26;20020;-36
2024/04/17 06:19:53;;;;;;;7.13;1.88;;;6.90;99.90;;;;;;13324201;26;20023;-37
2024/04/17 06:25:56;;;;;;;8.57;2.90;;;7.20;99.90;;;;;;13322078;26;20023;-37
2024/04/17 06:31:58;;;;;;;10.95;2.00;;;7.20;99.90;;;;;;13325563;26;20077;-36
2024/04/17 06:38:00;;;;;;;9.57;2.30;;;7.60;99.90;;;;;;13320723;26;20005;-37
2024/04/17 06:44:02;;;;;;;8.00;2.35;;;7.50;99.90;;;;;;13291474;26;20547;-37
2024/04/17 06:50:05;;;;;;;9.20;2.20;;;7.60;99.90;;;;;;13338653;26;20008;-37
2024/04/17 06:56:07;;;;;;;7.03;1.90;;;8.10;99.90;;;;;;13322651;26;20001;-37
2024/04/17 07:02:10;;;;;;;6.03;1.60;;;8.30;99.90;;;;;;13324128;26;20330;-37
2024/04/17 07:08:12;;;;;;;7.47;2.40;;;7.70;99.90;;;;;;13323262;26;19996;-37
2024/04/17 07:14:14;;;;;;;5.75;1.80;;;7.90;99.90;;;;;;13325437;26;20028;-38
2024/04/17 07:20:16;;;;;;;9.30;2.65;;;7.60;99.90;;;;;;13330114;26;20004;-38
2024/04/17 07:26:18;;;;;;;8.85;2.20;;;7.90;99.90;;;;;;13281740;26;20012;-38
2024/04/17 07:32:20;;;;;;;7.45;1.88;;;8.00;99.90;;;;;;13306130;26;20475;-37
2024/04/17 07:38:22;;;;;;;9.02;2.10;;;8.20;99.90;;;;;;13325180;26;20680;-37
2024/04/17 07:44:29;;;;;;;9.13;2.28;;;8.20;99.90;;;;;;13255324;26;20044;-37
2024/04/17 07:50:31;;;;;;;6.90;1.67;;;8.60;99.90;;;;;;13323165;26;20472;-37
2024/04/17 07:56:33;;;;;;;7.93;1.60;;;8.40;99.90;;;;;;13316099;26;20000;-37
2024/04/17 08:02:36;;;;;;;4.90;1.67;;;8.60;99.90;;;;;;13303851;26;20520;-37
2024/04/17 08:08:40;;;;;;;5.22;1.70;;;8.80;99.90;;;;;;13324663;26;20019;-37
2024/04/17 08:14:42;;;;;;;;;;;9.00;99.90;;;;;;13313276;26;20004;-38
2024/04/17 08:20:44;;;;;;;8.18;1.88;;;9.10;99.90;;;;;;13316400;26;19925;-37
2024/04/17 08:26:47;;;;;;;5.68;1.48;;;8.40;99.90;;;;;;13305242;26;20026;-36
2024/04/17 08:32:49;;;;;;;3.47;1.40;;;8.40;99.90;;;;;;13313409;26;20507;-36
2024/04/17 08:38:55;;;;;;;7.85;2.10;;;8.60;99.90;;;;;;13310435;26;20004;-37
2024/04/17 08:44:59;;;;;;;8.05;2.10;;;8.40;99.90;;;;;;13278116;26;20012;-37
2024/04/17 08:51:02;;;;;;;7.07;2.30;;;8.30;99.90;;;;;;13302904;26;20000;-37
2024/04/17 08:57:04;;;;;;;12.00;3.38;;;8.90;99.90;;;;;;13312821;26;20020;-37
2024/04/17 09:03:08;;;;;;;8.38;1.75;;;8.70;99.90;;;;;;13322446;26;20423;-36
2024/04/17 09:09:12;;;;;;;;;;;8.60;99.90;;;;;;13316099;26;20008;-37
2024/04/17 09:15:16;;;;;;;3.92;1.55;;;8.90;99.90;;;;;;13321773;26;20386;-37
2024/04/17 09:21:18;;;;;;;2.00;0.73;;;9.10;99.90;;;;;;13309760;26;20008;-37
2024/04/17 09:27:20;;;;;;;6.20;1.60;;;9.10;99.90;;;;;;13304955;26;20344;-37
2024/04/17 09:33:22;;;;;;;10.10;2.83;;;9.10;99.90;;;;;;13323247;26;20000;-37
2024/04/17 09:39:24;;;;;;;5.43;2.03;;;8.60;99.90;;;;;;13319766;26;20008;-37
2024/04/17 09:45:28;;;;;;;8.40;1.92;;;7.80;99.90;;;;;;13255044;26;20052;-37
2024/04/17 09:51:35;;;;;;;5.30;1.67;;;7.50;99.90;;;;;;13282564;26;20059;-37
2024/04/17 09:57:38;;;;;;;5.07;1.30;;;7.50;99.90;;;;;;13313141;26;20012;-37
2024/04/17 10:03:41;;;;;;;4.57;1.00;;;7.30;99.90;;;;;;13315936;26;20004;-36
2024/04/17 10:09:43;;;;;;;4.17;1.17;;;7.50;99.90;;;;;;13325357;26;20019;-36
2024/04/17 10:15:45;;;;;;;2.50;0.70;;;8.10;99.90;;;;;;13322119;26;20098;-37
2024/04/17 10:21:47;;;;;;;2.53;0.95;;;8.20;99.90;;;;;;13321010;26;20460;-38
2024/04/17 10:27:49;;;;;;;2.55;0.80;;;8.60;99.90;;;;;;13331400;26;20535;-37
2024/04/17 10:33:51;;;;;;;1.92;0.70;;;8.80;99.90;;;;;;13335617;26;20102;-36
2024/04/17 10:39:56;;;;;;;;;;;9.00;99.90;;;;;;13298218;26;20454;-37
2024/04/17 10:46:04;;;;;;;4.25;1.00;;;9.10;99.90;;;;;;13272856;26;19962;-37
2024/04/17 10:52:06;;;;;;;3.20;0.98;;;8.90;99.90;;;;;;13318398;26;20004;-36
2024/04/17 10:58:10;;;;;;;3.20;1.00;;;8.70;99.90;;;;;;13318072;26;20012;-37
2024/04/17 11:04:12;;;;;;;2.35;0.80;;;8.60;99.90;;;;;;13312796;26;20488;-36
2024/04/17 11:10:14;;;;;;;2.72;0.70;;;9.20;99.90;;;;;;13320201;26;20081;-37
2024/04/17 11:16:16;;;;;;;1.17;0.60;;;9.40;99.90;;;;;;13305145;26;20479;-37
2024/04/17 11:22:18;;;;;;;0.85;0.40;;;9.60;99.90;;;;;;13322129;26;20029;-37
2024/04/17 11:28:20;;;;;;;1.80;0.68;;;9.30;99.90;;;;;;13319930;26;20004;-36
2024/04/17 11:34:24;;;;;;;1.63;0.50;;;9.00;99.90;;;;;;13324458;26;20020;-36
2024/04/17 11:40:27;;;;;;;;;;;8.80;99.90;;;;;;13301909;26;20004;-36
2024/04/17 11:46:29;;;;;;;2.97;0.70;;;9.10;99.90;;;;;;13288637;26;20270;-36
2024/04/17 11:52:32;;;;;;;2.60;0.57;;;9.30;99.90;;;;;;13311834;26;20004;-37
2024/04/17 11:58:34;;;;;;;1.10;0.50;;;8.60;99.90;;;;;;13329288;26;20514;-37
2024/04/17 12:04:36;;;;;;;3.05;0.77;;;8.00;99.90;;;;;;13318280;26;19996;-36
2024/04/17 12:10:38;;;;;;;1.08;0.57;;;7.60;99.90;;;;;;13321981;26;20079;-37
2024/04/17 12:16:40;;;;;;;3.05;0.70;;;7.60;99.90;;;;;;13322977;26;20024;-37
2024/04/17 12:22:43;;;;;;;1.67;0.70;;;7.80;99.90;;;;;;13306378;26;20040;-37
2024/04/17 12:28:45;;;;;;;1.92;0.85;;;7.70;99.90;;;;;;13328228;26;20017;-37
2024/04/17 12:34:47;;;;;;;3.03;0.70;;;7.80;99.90;;;;;;13323770;26;20065;-37
2024/04/17 12:40:50;;;;;;;2.10;0.70;;;7.80;99.90;;;;;;13288441;26;20001;-37
2024/04/17 12:46:52;;;;;;;1.05;0.63;;;8.00;99.90;;;;;;13198757;26;20490;-37
2024/04/17 12:52:54;;;;;;;3.05;0.90;;;9.00;99.90;;;;;;13255572;26;20009;-37
2024/04/17 12:58:56;;;;;;;3.97;1.40;;;10.00;99.90;;;;;;13267085;26;20055;-37
2024/04/17 13:04:58;;;;;;;2.90;1.20;;;10.40;99.90;;;;;;13234529;26;20054;-37
2024/04/17 13:11:01;;;;;;;1.67;1.20;;;10.70;99.90;;;;;;13224934;26;20005;-37
2024/04/17 13:17:03;;;;;;;3.10;1.30;;;10.70;99.90;;;;;;13262527;26;21110;-38
2024/04/17 13:23:05;;;;;;;4.45;1.38;;;10.40;99.90;;;;;;13260071;26;20023;-35
2024/04/17 13:29:17;;;;;;;2.75;1.65;;;10.10;99.90;;;;;;13258964;26;20040;-37
2024/04/17 13:35:19;;;;;;;3.47;1.40;;;9.70;99.90;;;;;;13254445;26;20847;-37
2024/04/17 13:41:21;;;;;;;4.03;1.50;;;9.30;99.90;;;;;;13268360;26;21102;-37
2024/04/17 13:47:23;;;;;;;2.40;1.25;;;9.20;99.90;;;;;;13227574;26;20017;-37
2024/04/17 13:53:25;;;;;;;2.75;1.35;;;9.60;99.90;;;;;;13269667;26;20474;-37
2024/04/17 13:59:27;;;;;;;2.53;1.33;;;9.80;99.90;;;;;;13260226;26;20040;-37
2024/04/17 14:05:34;;;;;;;2.72;1.30;;;9.80;99.90;;;;;;13257612;26;20063;-37
2024/04/17 14:11:37;;;;;;;3.25;1.67;;;9.80;99.90;;;;;;13220614;26;20004;-37
2024/04/17 14:17:39;;;;;;;2.95;1.10;;;9.30;99.90;;;;;;13276725;26;20562;-37
2024/04/17 14:23:42;;;;;;;2.88;0.95;;;8.80;99.90;;;;;;13275300;26;20009;-37
2024/04/17 14:29:44;;;;;;;2.17;1.10;;;8.40;99.90;;;;;;13269026;26;20031;-37
2024/04/17 14:35:46;;;;;;;1.52;0.90;;;7.90;99.90;;;;;;13237836;26;20008;-37
2024/04/17 14:41:48;;;;;;;1.88;0.73;;;7.50;99.90;;;;;;13268200;26;20012;-37
2024/04/17 14:47:50;;;;;;;1.73;1.02;;;7.10;99.90;;;;;;13266102;26;21047;-37
2024/04/17 14:53:52;;;;;;;1.90;0.82;;;7.20;99.90;;;;;;13278155;26;20024;-37
2024/04/17 14:59:54;;;;;;;1.88;1.20;;;7.40;99.90;;;;;;13270579;26;20027;-37
2024/04/17 15:06:10;;;;;;;1.70;1.15;;;7.50;99.90;;;;;;13250164;26;20088;-36
2024/04/17 15:12:16;;;;;;;1.98;1.23;;;7.50;99.90;;;;;;13271895;26;20019;-37
2024/04/17 15:18:18;;;;;;;2.20;1.25;;;7.60;99.90;;;;;;13277311;26;20503;-37
2024/04/17 15:24:20;;;;;;;1.70;1.10;;;7.50;99.90;;;;;;13271067;26;20090;-37
2024/04/17 15:30:22;;;;;;;2.80;1.30;;;7.70;99.90;;;;;;13275972;26;20020;-36
2024/04/17 15:36:25;;;;;;;2.47;1.52;;;7.60;99.90;;;;;;13270256;26;20019;-37
2024/04/17 15:42:28;;;;;;;2.83;1.50;;;7.70;99.90;;;;;;13277897;26;20008;-36
2024/04/17 15:48:30;;;;;;;3.60;1.70;;;8.10;99.90;;;;;;13271785;26;20251;-37
2024/04/17 15:54:32;;;;;;;2.40;1.60;;;8.10;99.90;;;;;;13267660;26;20012;-37
2024/04/17 16:00:35;;;;;;;2.42;1.58;;;8.40;99.90;;;;;;13279433;26;20066;-37
2024/04/17 16:06:41;;;;;;;4.60;1.80;;;8.10;99.90;;;;;;13276901;26;20027;-37
2024/04/17 16:12:43;;;;;;;;;;;8.10;99.90;;;;;;13267149;26;20008;-39
2024/04/17 16:18:45;;;;;;;2.10;1.30;;;8.20;99.90;;;;;;13273559;26;19938;-37
2024/04/17 16:24:48;;;;;;;1.25;1.00;;;8.20;99.90;;;;;;13272725;26;20027;-36
2024/04/17 16:30:51;;;;;;;1.20;1.00;;;8.20;99.90;;;;;;13275811;26;20012;-37
2024/04/17 16:36:53;;;;;;;3.88;1.00;;;7.90;99.90;;;;;;13275687;26;20009;-37
2024/04/17 16:42:56;;;;;;;1.80;1.00;;;7.90;99.90;;;;;;13273419;26;20052;-38
2024/04/17 16:48:58;;;;;;;3.67;1.50;;;7.90;99.90;;;;;;13271766;26;20019;-37
2024/04/17 16:55:05;;;;;;;3.72;1.52;;;7.60;99.90;;;;;;13274717;26;20009;-36
2024/04/17 17:01:07;;;;;;;2.47;1.48;;;7.30;99.90;;;;;;13264166;26;20020;-36
2024/04/17 17:07:10;;;;;;;1.95;0.80;;;7.30;99.90;;;;;;13272316;26;20029;-37
2024/04/17 17:13:13;;;;;;;1.75;0.90;;;7.30;99.90;;;;;;13272727;26;20094;-36
2024/04/17 17:19:15;;;;;;;1.73;0.90;;;7.20;99.90;;;;;;13269209;26;20080;-35
2024/04/17 17:25:18;;;;;;;2.28;1.30;;;7.30;99.90;;;;;;13258887;26;20029;-37
2024/04/17 17:31:20;;;;;;;1.40;0.93;;;7.40;99.90;;;;;;13274024;26;20399;-37
2024/04/17 17:37:22;;;;;;;1.60;0.70;;;7.20;99.90;;;;;;13268056;26;20005;-37
2024/04/17 17:43:24;;;;;;;1.67;1.02;;;7.10;99.90;;;;;;13275227;26;20012;-37
2024/04/17 17:49:26;;;;;;;2.17;1.00;;;7.00;99.90;;;;;;13268716;26;20536;-37
2024/04/17 17:55:28;;;;;;;2.85;1.23;;;6.60;99.90;;;;;;13268550;26;20009;-38
2024/04/17 18:01:30;;;;;;;2.13;1.50;;;6.60;99.90;;;;;;13272903;26;20008;-36
2024/04/17 18:07:32;;;;;;;2.40;1.50;;;6.60;99.90;;;;;;13266880;26;20090;-37
2024/04/17 18:13:34;;;;;;;3.03;1.83;;;6.60;99.90;;;;;;13266122;26;20359;-37
2024/04/17 18:19:37;;;;;;;3.40;2.00;;;6.50;99.90;;;;;;13267645;26;20009;-37
2024/04/17 18:25:39;;;;;;;3.20;1.80;;;6.50;99.90;;;;;;13282672;26;20004;-37
2024/04/17 18:31:41;;;;;;;3.45;2.08;;;6.70;99.90;;;;;;13268154;26;20005;-36
2024/04/17 18:37:43;;;;;;;3.55;2.20;;;6.50;99.90;;;;;;13280605;26;20026;-36
2024/04/17 18:43:49;;;;;;;5.32;2.45;;;6.60;99.90;;;;;;13286549;26;20039;-37
2024/04/17 18:49:52;;;;;;;3.70;2.40;;;6.70;99.90;;;;;;13266522;26;20009;-37
2024/04/17 18:56:00;;;;;;;4.32;2.92;;;6.90;99.90;;;;;;13267239;26;20012;-38
2024/04/17 19:02:03;;;;;;;3.72;2.58;;;6.80;99.90;;;;;;13278133;26;20352;-37
2024/04/17 19:08:05;;;;;;;4.28;2.60;;;6.80;99.90;;;;;;13262145;26;20809;-37
2024/04/17 19:14:07;;;;;;;5.10;2.38;;;6.80;99.90;;;;;;13271827;26;20018;-38
2024/04/17 19:20:09;;;;;;;3.38;2.17;;;6.90;99.90;;;;;;13270598;26;20424;-36
2024/04/17 19:26:12;;;;;;;5.03;3.30;;;7.00;99.90;;;;;;13365753;21;20062;-81
2024/04/17 19:32:16;;;;;;;3.67;2.77;;;6.90;99.90;;;;;;13382739;26;20008;-81
2024/04/17 19:38:18;;;;;;;3.13;2.23;;;6.90;99.90;;;;;;13415133;26;20091;-81
2024/04/17 19:44:20;;;;;;;5.90;3.00;;;6.90;99.90;;;;;;13380903;26;20018;-82
2024/04/17 19:50:22;;;;;;;4.18;3.28;;;6.90;99.90;;;;;;13408829;26;20044;-82
2024/04/17 19:56:25;;;;;;;6.20;3.33;;;6.90;99.90;;;;;;13381353;26;20375;-81
2024/04/17 20:02:27;;;;;;;5.53;3.35;;;6.90;99.90;;;;;;13388395;26;20084;-83
2024/04/17 20:08:29;;;;;;;6.70;3.05;;;6.90;99.90;;;;;;13410078;26;20973;-82
2024/04/17 20:14:31;;;;;;;4.88;3.05;;;6.90;99.90;;;;;;13407466;26;20012;-82
2024/04/17 20:20:33;;;;;;;6.22;3.42;;;6.90;99.90;;;;;;13401316;26;20023;-83
2024/04/17 20:26:39;;;;;;;5.82;3.55;;;6.80;99.90;;;;;;13412911;26;20083;-82
2024/04/17 20:32:41;;;;;;;4.85;3.40;;;6.80;99.90;;;;;;13407927;26;20633;-82
2024/04/17 20:38:43;;;;;;;6.35;3.88;;;6.90;99.90;;;;;;13381142;26;20353;-82
2024/04/17 20:44:46;;;;;;;5.40;3.75;;;6.70;99.90;;;;;;13408431;26;20031;-82
2024/04/17 20:50:49;;;;;;;6.47;3.42;;;6.70;99.90;;;;;;13382063;26;20417;-82
2024/04/17 20:56:51;;;;;;;4.82;3.55;;;6.70;99.90;;;;;;13384823;26;20101;-82
2024/04/17 21:02:53;;;;;;;5.72;3.70;;;6.70;99.90;;;;;;13382204;26;20004;-81
2024/04/17 21:08:55;;;;;;;6.03;4.07;;;6.90;99.90;;;;;;13417110;26;20004;-82
2024/04/17 21:14:58;;;;;;;5.13;3.88;;;6.80;99.90;;;;;;13407319;26;20004;-82
2024/04/17 21:21:00;;;;;;;5.45;3.88;;;6.80;99.90;;;;;;13412032;26;20043;-82
2024/04/17 21:27:02;;;;;;;4.78;3.60;;;6.80;99.90;;;;;;13407690;26;20016;-83
2024/04/17 21:33:04;;;;;;;6.28;3.95;;;6.70;99.90;;;;;;13383171;26;20015;-83
2024/04/17 21:39:06;;;;;;;6.38;3.92;;;6.80;99.90;;;;;;13376838;26;20564;-82
2024/04/17 21:45:09;;;;;;;5.05;3.70;;;6.70;99.90;;;;;;13412567;26;20528;-83
2024/04/17 21:51:12;;;;;;;7.18;4.38;;;6.70;99.90;;;;;;13375590;26;20007;-82
2024/04/17 21:57:14;;;;;;;6.03;3.78;;;6.40;99.90;;;;;;13427184;26;20023;-84
2024/04/17 22:03:17;;;;;;;5.32;3.25;;;6.50;99.90;;;;;;13428409;26;20023;-83
2024/04/17 22:09:20;;;;;;;4.82;3.03;;;6.10;99.90;;;;;;13385526;26;20008;-84
2024/04/17 22:15:22;;;;;;;3.45;2.58;;;6.10;99.90;;;;;;13425806;26;20023;-83
2024/04/17 22:21:24;;;;;;;3.30;2.20;;;6.40;99.90;;;;;;13383348;26;20019;-83
2024/04/17 22:27:26;;;;;;;5.13;2.08;;;6.50;99.90;;;;;;13420484;26;20007;-81
2024/04/17 22:33:28;;;;;;;2.90;1.98;;;6.50;99.90;;;;;;13378533;26;20511;-81
2024/04/17 22:39:30;;;;;;;4.15;2.22;;;6.60;99.90;;;;;;13384588;26;20084;-81
2024/04/17 22:45:32;;;;;;;3.55;2.05;;;6.40;99.90;;;;;;13392802;26;20012;-81
2024/04/17 22:51:34;;;;;;;3.85;1.80;;;6.40;99.90;;;;;;13365900;26;20012;-81
2024/04/17 22:57:36;;;;;;;3.58;2.13;;;6.40;99.90;;;;;;13382721;26;20055;-82
2024/04/17 23:03:39;;;;;;;3.75;1.98;;;6.40;99.90;;;;;;13401550;26;20008;-81
2024/04/17 23:09:41;;;;;;;3.95;2.35;;;6.40;99.90;;;;;;13385242;26;20014;-80
2024/04/17 23:15:44;;;;;;;4.75;2.50;;;6.40;99.90;;;;;;13404478;26;20052;-80
2024/04/17 23:21:46;;;;;;;6.90;3.55;;;6.40;99.90;;;;;;13411359;26;20022;-80
2024/04/17 23:27:49;;;;;;;5.68;3.10;;;6.20;99.90;;;;;;13368884;26;20057;-80
2024/04/17 23:33:52;;;;;;;5.95;3.60;;;6.20;99.90;;;;;;13406915;26;20011;-80
2024/04/17 23:39:54;;;;;;;5.97;3.45;;;6.10;99.90;;;;;;13400358;26;20012;-79
2024/04/17 23:45:56;;;;;;;5.90;3.75;;;6.20;99.90;;;;;;13405489;26;21131;-80
2024/04/17 23:51:58;;;;;;;5.53;3.20;;;6.20;99.90;;;;;;13374903;26;20014;-79
2024/04/17 23:58:01;;;;;;;4.55;3.38;;;6.10;99.90;;;;;;13405373;26;20919;-80
